Rechercher aéroport 
image banner adimage banner adimage banner ad
image banner ad

1CA6 - On The Rocks

Situé à Alpine, United States

ICAO - 1CA6, IATA -

Données fournies par Airmate  

Information générale

Coordonnées: N32°45'54" W116°43'21"
Élévation : 2650 feet MSL.
Variation magnétique : 13° East
Voir autres Aéroports à California

Données opérationnelles

Special qualification required
Heure actuelle UTC:
Heure actuelle locale:
Météo à : KSEE - Gillespie Field ( 24 km )
METAR: KSEE 020455Z AUTO 28008KT 10SM CLR 23/07 A3002 RMK AO2
Voir NOTAMs / SUP AIP / TFR affectant cet aéroport [VIEW]
Fréquences de communication: [VIEW]

Pistes:

Identifiant RWYQFULongueur (ft)Largeur (ft)SurfaceLDA (ft)
15234060GRAVEL
33234060GRAVEL

Coordonnées de l'aéroport

Adresse: Alpine United States

Vue satellite de 1CA6